Terminal Aerodrome Forecast
Issued by NWS

Current Version | Previous Version | Text Only | Print | Product List | Glossary On
Versions: 1 2 3 4 5 6 7 8 9 10 11 12 13 14 15 16 17 18
442
FTUS46 KEKA 271128
TAFCEC
TAF
KCEC 271128Z 2712/2812 35006KT P6SM OVC020
     FM271400 07002KT 4SM BR BKN009 OVC020
     FM271800 30008KT P6SM BKN025
     FM272200 32009KT P6SM SCT025=

USA.gov is the U.S. government's official web portal to all federal, state and local government web resources and services.